sensor_id;sensor_type;location;lat;lon;timestamp;P1;durP1;ratioP1;P2;durP2;ratioP2
30010;SDS011;16851;53.564;8.112;2023-08-06T00:02:29;4.93;;;3.78;;
30010;SDS011;16851;53.564;8.112;2023-08-06T00:07:33;4.35;;;3.70;;
30010;SDS011;16851;53.564;8.112;2023-08-06T00:12:35;4.53;;;3.83;;
30010;SDS011;16851;53.564;8.112;2023-08-06T00:17:39;6.65;;;3.63;;
30010;SDS011;16851;53.564;8.112;2023-08-06T00:22:43;5.18;;;3.03;;
30010;SDS011;16851;53.564;8.112;2023-08-06T00:27:47;3.80;;;2.80;;
30010;SDS011;16851;53.564;8.112;2023-08-06T00:32:52;4.40;;;2.65;;
30010;SDS011;16851;53.564;8.112;2023-08-06T00:37:59;7.25;;;2.90;;
30010;SDS011;16851;53.564;8.112;2023-08-06T00:43:04;3.33;;;2.30;;
30010;SDS011;16851;53.564;8.112;2023-08-06T00:48:05;6.03;;;2.85;;
30010;SDS011;16851;53.564;8.112;2023-08-06T00:53:08;4.60;;;2.75;;
30010;SDS011;16851;53.564;8.112;2023-08-06T00:58:14;4.25;;;2.53;;
30010;SDS011;16851;53.564;8.112;2023-08-06T01:03:17;7.15;;;2.90;;
30010;SDS011;16851;53.564;8.112;2023-08-06T01:13:45;5.03;;;2.47;;
30010;SDS011;16851;53.564;8.112;2023-08-06T01:18:52;4.85;;;2.70;;
30010;SDS011;16851;53.564;8.112;2023-08-06T01:23:54;3.75;;;2.80;;
30010;SDS011;16851;53.564;8.112;2023-08-06T01:28:59;4.03;;;2.45;;
30010;SDS011;16851;53.564;8.112;2023-08-06T01:34:13;3.63;;;2.70;;
30010;SDS011;16851;53.564;8.112;2023-08-06T01:39:18;3.38;;;2.58;;
30010;SDS011;16851;53.564;8.112;2023-08-06T01:44:23;3.83;;;2.67;;
30010;SDS011;16851;53.564;8.112;2023-08-06T01:49:26;5.85;;;2.70;;
30010;SDS011;16851;53.564;8.112;2023-08-06T01:54:34;5.03;;;2.20;;
30010;SDS011;16851;53.564;8.112;2023-08-06T01:59:38;5.55;;;2.63;;
30010;SDS011;16851;53.564;8.112;2023-08-06T02:04:42;5.68;;;2.58;;
30010;SDS011;16851;53.564;8.112;2023-08-06T02:09:49;2.92;;;2.30;;
30010;SDS011;16851;53.564;8.112;2023-08-06T02:14:51;2.83;;;2.35;;
30010;SDS011;16851;53.564;8.112;2023-08-06T02:19:53;5.82;;;2.50;;
30010;SDS011;16851;53.564;8.112;2023-08-06T02:24:55;3.17;;;2.55;;
30010;SDS011;16851;53.564;8.112;2023-08-06T02:29:59;3.55;;;2.38;;
30010;SDS011;16851;53.564;8.112;2023-08-06T02:35:01;5.47;;;2.50;;
30010;SDS011;16851;53.564;8.112;2023-08-06T02:40:03;4.25;;;2.70;;
30010;SDS011;16851;53.564;8.112;2023-08-06T02:45:05;4.15;;;2.53;;
30010;SDS011;16851;53.564;8.112;2023-08-06T02:50:13;4.13;;;2.60;;
30010;SDS011;16851;53.564;8.112;2023-08-06T02:55:15;3.65;;;2.60;;
30010;SDS011;16851;53.564;8.112;2023-08-06T03:00:20;4.28;;;3.20;;
30010;SDS011;16851;53.564;8.112;2023-08-06T03:05:23;3.78;;;3.10;;
30010;SDS011;16851;53.564;8.112;2023-08-06T03:10:30;3.95;;;3.30;;
30010;SDS011;16851;53.564;8.112;2023-08-06T03:15:36;3.40;;;2.85;;
30010;SDS011;16851;53.564;8.112;2023-08-06T03:20:40;4.07;;;3.22;;
30010;SDS011;16851;53.564;8.112;2023-08-06T03:25:42;5.60;;;2.75;;
30010;SDS011;16851;53.564;8.112;2023-08-06T03:30:46;3.63;;;2.70;;
30010;SDS011;16851;53.564;8.112;2023-08-06T03:35:48;7.07;;;2.80;;
30010;SDS011;16851;53.564;8.112;2023-08-06T03:40:57;2.85;;;2.45;;
30010;SDS011;16851;53.564;8.112;2023-08-06T03:46:02;6.07;;;2.78;;
30010;SDS011;16851;53.564;8.112;2023-08-06T03:51:08;4.18;;;3.08;;
30010;SDS011;16851;53.564;8.112;2023-08-06T03:56:12;5.00;;;3.30;;
30010;SDS011;16851;53.564;8.112;2023-08-06T04:01:16;4.95;;;3.50;;
30010;SDS011;16851;53.564;8.112;2023-08-06T04:06:24;4.22;;;3.65;;
30010;SDS011;16851;53.564;8.112;2023-08-06T04:11:28;4.00;;;3.60;;
30010;SDS011;16851;53.564;8.112;2023-08-06T04:16:32;4.50;;;3.60;;
30010;SDS011;16851;53.564;8.112;2023-08-06T04:21:39;5.20;;;3.40;;
30010;SDS011;16851;53.564;8.112;2023-08-06T04:26:44;3.65;;;3.10;;
30010;SDS011;16851;53.564;8.112;2023-08-06T04:31:48;4.50;;;3.03;;
30010;SDS011;16851;53.564;8.112;2023-08-06T04:36:50;3.42;;;3.03;;
30010;SDS011;16851;53.564;8.112;2023-08-06T04:41:53;4.72;;;3.00;;
30010;SDS011;16851;53.564;8.112;2023-08-06T04:46:55;4.18;;;3.05;;
30010;SDS011;16851;53.564;8.112;2023-08-06T04:51:59;4.30;;;3.15;;
30010;SDS011;16851;53.564;8.112;2023-08-06T04:57:01;6.07;;;3.50;;
30010;SDS011;16851;53.564;8.112;2023-08-06T05:02:05;4.72;;;3.65;;
30010;SDS011;16851;53.564;8.112;2023-08-06T05:07:07;4.60;;;3.88;;
30010;SDS011;16851;53.564;8.112;2023-08-06T05:12:09;4.82;;;3.70;;
30010;SDS011;16851;53.564;8.112;2023-08-06T05:17:11;5.03;;;4.03;;
30010;SDS011;16851;53.564;8.112;2023-08-06T05:22:15;6.50;;;4.07;;
30010;SDS011;16851;53.564;8.112;2023-08-06T05:27:19;5.50;;;4.10;;
30010;SDS011;16851;53.564;8.112;2023-08-06T05:32:23;7.38;;;4.28;;
30010;SDS011;16851;53.564;8.112;2023-08-06T05:37:25;4.40;;;3.85;;
30010;SDS011;16851;53.564;8.112;2023-08-06T05:42:29;7.95;;;4.78;;
30010;SDS011;16851;53.564;8.112;2023-08-06T05:47:31;8.50;;;5.05;;
30010;SDS011;16851;53.564;8.112;2023-08-06T05:52:35;6.80;;;4.95;;
30010;SDS011;16851;53.564;8.112;2023-08-06T05:57:37;6.65;;;4.55;;
30010;SDS011;16851;53.564;8.112;2023-08-06T06:02:39;5.10;;;4.60;;
30010;SDS011;16851;53.564;8.112;2023-08-06T06:07:41;5.35;;;4.55;;
30010;SDS011;16851;53.564;8.112;2023-08-06T06:12:43;6.30;;;5.07;;
30010;SDS011;16851;53.564;8.112;2023-08-06T06:17:47;7.00;;;5.32;;
30010;SDS011;16851;53.564;8.112;2023-08-06T06:22:51;6.25;;;5.40;;
30010;SDS011;16851;53.564;8.112;2023-08-06T06:27:53;7.78;;;5.90;;
30010;SDS011;16851;53.564;8.112;2023-08-06T06:33:00;8.00;;;5.68;;
30010;SDS011;16851;53.564;8.112;2023-08-06T06:38:04;7.45;;;5.97;;
30010;SDS011;16851;53.564;8.112;2023-08-06T06:43:06;10.23;;;7.22;;
30010;SDS011;16851;53.564;8.112;2023-08-06T06:48:08;11.35;;;8.68;;
30010;SDS011;16851;53.564;8.112;2023-08-06T06:53:10;10.63;;;8.45;;
30010;SDS011;16851;53.564;8.112;2023-08-06T06:58:15;10.38;;;8.43;;
30010;SDS011;16851;53.564;8.112;2023-08-06T07:03:20;9.60;;;7.70;;
30010;SDS011;16851;53.564;8.112;2023-08-06T07:08:22;10.27;;;7.85;;
30010;SDS011;16851;53.564;8.112;2023-08-06T07:13:26;9.93;;;7.95;;
30010;SDS011;16851;53.564;8.112;2023-08-06T07:18:31;9.13;;;6.72;;
30010;SDS011;16851;53.564;8.112;2023-08-06T07:23:32;9.88;;;7.32;;
30010;SDS011;16851;53.564;8.112;2023-08-06T07:28:34;11.30;;;9.27;;
30010;SDS011;16851;53.564;8.112;2023-08-06T07:33:39;11.02;;;7.57;;
30010;SDS011;16851;53.564;8.112;2023-08-06T07:38:41;11.98;;;9.05;;
30010;SDS011;16851;53.564;8.112;2023-08-06T07:43:43;11.23;;;8.50;;
30010;SDS011;16851;53.564;8.112;2023-08-06T07:48:44;9.88;;;8.65;;
30010;SDS011;16851;53.564;8.112;2023-08-06T07:53:48;11.02;;;9.35;;
30010;SDS011;16851;53.564;8.112;2023-08-06T07:58:50;13.13;;;9.18;;
30010;SDS011;16851;53.564;8.112;2023-08-06T08:03:52;12.75;;;10.27;;
30010;SDS011;16851;53.564;8.112;2023-08-06T08:08:56;11.02;;;9.82;;
30010;SDS011;16851;53.564;8.112;2023-08-06T08:14:05;12.80;;;10.52;;
30010;SDS011;16851;53.564;8.112;2023-08-06T08:19:07;13.10;;;9.43;;
30010;SDS011;16851;53.564;8.112;2023-08-06T08:24:12;10.23;;;8.57;;
30010;SDS011;16851;53.564;8.112;2023-08-06T08:29:14;10.05;;;8.50;;
30010;SDS011;16851;53.564;8.112;2023-08-06T08:34:18;9.65;;;8.07;;
30010;SDS011;16851;53.564;8.112;2023-08-06T08:39:22;8.02;;;7.13;;
30010;SDS011;16851;53.564;8.112;2023-08-06T08:44:24;14.70;;;10.57;;
30010;SDS011;16851;53.564;8.112;2023-08-06T08:49:32;8.30;;;6.13;;
30010;SDS011;16851;53.564;8.112;2023-08-06T08:54:36;7.70;;;5.15;;
30010;SDS011;16851;53.564;8.112;2023-08-06T08:59:41;6.28;;;5.18;;
30010;SDS011;16851;53.564;8.112;2023-08-06T09:04:43;7.00;;;5.38;;
30010;SDS011;16851;53.564;8.112;2023-08-06T09:09:48;5.95;;;4.82;;
30010;SDS011;16851;53.564;8.112;2023-08-06T09:14:50;7.25;;;4.47;;
30010;SDS011;16851;53.564;8.112;2023-08-06T09:19:58;6.38;;;5.30;;
30010;SDS011;16851;53.564;8.112;2023-08-06T09:25:03;8.13;;;4.57;;
30010;SDS011;16851;53.564;8.112;2023-08-06T09:30:07;6.53;;;5.32;;
30010;SDS011;16851;53.564;8.112;2023-08-06T09:35:10;5.70;;;4.30;;
30010;SDS011;16851;53.564;8.112;2023-08-06T09:40:30;6.00;;;4.22;;
30010;SDS011;16851;53.564;8.112;2023-08-06T09:45:36;5.95;;;3.88;;
30010;SDS011;16851;53.564;8.112;2023-08-06T09:50:38;6.93;;;4.07;;
30010;SDS011;16851;53.564;8.112;2023-08-06T09:55:45;7.22;;;4.30;;
30010;SDS011;16851;53.564;8.112;2023-08-06T10:00:47;7.70;;;4.80;;
30010;SDS011;16851;53.564;8.112;2023-08-06T10:05:49;6.30;;;4.40;;
30010;SDS011;16851;53.564;8.112;2023-08-06T10:10:51;6.80;;;3.75;;
30010;SDS011;16851;53.564;8.112;2023-08-06T10:15:55;7.53;;;3.95;;
30010;SDS011;16851;53.564;8.112;2023-08-06T10:21:00;7.05;;;4.45;;
30010;SDS011;16851;53.564;8.112;2023-08-06T10:26:06;6.13;;;3.95;;
30010;SDS011;16851;53.564;8.112;2023-08-06T10:31:10;7.90;;;4.28;;
30010;SDS011;16851;53.564;8.112;2023-08-06T10:36:12;5.68;;;4.55;;
30010;SDS011;16851;53.564;8.112;2023-08-06T10:41:16;7.07;;;3.90;;
30010;SDS011;16851;53.564;8.112;2023-08-06T10:46:26;6.30;;;4.70;;
30010;SDS011;16851;53.564;8.112;2023-08-06T10:51:32;7.05;;;4.38;;
30010;SDS011;16851;53.564;8.112;2023-08-06T10:56:39;9.43;;;4.22;;
30010;SDS011;16851;53.564;8.112;2023-08-06T11:01:41;5.82;;;3.63;;
30010;SDS011;16851;53.564;8.112;2023-08-06T11:06:43;5.75;;;3.70;;
30010;SDS011;16851;53.564;8.112;2023-08-06T11:11:47;8.18;;;4.15;;
30010;SDS011;16851;53.564;8.112;2023-08-06T11:16:49;7.88;;;4.35;;
30010;SDS011;16851;53.564;8.112;2023-08-06T11:21:57;5.28;;;3.92;;
30010;SDS011;16851;53.564;8.112;2023-08-06T11:26:59;7.13;;;3.95;;
30010;SDS011;16851;53.564;8.112;2023-08-06T11:32:05;7.53;;;3.67;;
30010;SDS011;16851;53.564;8.112;2023-08-06T11:37:07;6.47;;;3.90;;
30010;SDS011;16851;53.564;8.112;2023-08-06T11:42:09;6.25;;;3.63;;
30010;SDS011;16851;53.564;8.112;2023-08-06T11:47:17;8.88;;;4.22;;
30010;SDS011;16851;53.564;8.112;2023-08-06T11:52:23;9.10;;;4.60;;
30010;SDS011;16851;53.564;8.112;2023-08-06T11:57:33;10.02;;;5.82;;
30010;SDS011;16851;53.564;8.112;2023-08-06T12:02:41;11.43;;;5.78;;
30010;SDS011;16851;53.564;8.112;2023-08-06T12:07:44;8.27;;;5.40;;
30010;SDS011;16851;53.564;8.112;2023-08-06T12:12:50;11.15;;;5.07;;
30010;SDS011;16851;53.564;8.112;2023-08-06T12:17:53;8.75;;;4.70;;
30010;SDS011;16851;53.564;8.112;2023-08-06T12:22:55;10.23;;;5.45;;
30010;SDS011;16851;53.564;8.112;2023-08-06T12:27:59;11.15;;;4.65;;
30010;SDS011;16851;53.564;8.112;2023-08-06T12:33:01;8.07;;;4.50;;
30010;SDS011;16851;53.564;8.112;2023-08-06T12:38:05;6.68;;;3.65;;
30010;SDS011;16851;53.564;8.112;2023-08-06T12:43:09;7.13;;;3.60;;
30010;SDS011;16851;53.564;8.112;2023-08-06T12:48:11;6.60;;;3.75;;
30010;SDS011;16851;53.564;8.112;2023-08-06T12:53:16;10.32;;;3.85;;
30010;SDS011;16851;53.564;8.112;2023-08-06T12:58:22;8.38;;;2.90;;
30010;SDS011;16851;53.564;8.112;2023-08-06T13:03:24;6.38;;;2.97;;
30010;SDS011;16851;53.564;8.112;2023-08-06T13:08:33;6.32;;;3.33;;
30010;SDS011;16851;53.564;8.112;2023-08-06T13:13:35;4.25;;;2.63;;
30010;SDS011;16851;53.564;8.112;2023-08-06T13:18:41;6.88;;;2.88;;
30010;SDS011;16851;53.564;8.112;2023-08-06T13:23:43;6.93;;;3.33;;
30010;SDS011;16851;53.564;8.112;2023-08-06T13:28:49;5.57;;;3.10;;
30010;SDS011;16851;53.564;8.112;2023-08-06T13:33:51;5.78;;;2.72;;
30010;SDS011;16851;53.564;8.112;2023-08-06T13:38:56;5.68;;;2.70;;
30010;SDS011;16851;53.564;8.112;2023-08-06T13:44:00;6.93;;;2.50;;
30010;SDS011;16851;53.564;8.112;2023-08-06T13:49:04;3.80;;;2.53;;
30010;SDS011;16851;53.564;8.112;2023-08-06T13:54:06;5.78;;;3.63;;
30010;SDS011;16851;53.564;8.112;2023-08-06T13:59:11;7.43;;;2.97;;
30010;SDS011;16851;53.564;8.112;2023-08-06T14:04:17;6.43;;;3.28;;
30010;SDS011;16851;53.564;8.112;2023-08-06T14:09:21;8.55;;;3.13;;
30010;SDS011;16851;53.564;8.112;2023-08-06T14:14:24;8.15;;;2.97;;
30010;SDS011;16851;53.564;8.112;2023-08-06T14:19:29;6.05;;;3.05;;
30010;SDS011;16851;53.564;8.112;2023-08-06T14:24:31;8.07;;;3.28;;
30010;SDS011;16851;53.564;8.112;2023-08-06T14:29:37;10.45;;;3.50;;
30010;SDS011;16851;53.564;8.112;2023-08-06T14:34:39;8.23;;;3.30;;
30010;SDS011;16851;53.564;8.112;2023-08-06T14:39:41;4.60;;;3.13;;
30010;SDS011;16851;53.564;8.112;2023-08-06T14:44:45;7.95;;;3.80;;
30010;SDS011;16851;53.564;8.112;2023-08-06T14:49:47;6.93;;;3.30;;
30010;SDS011;16851;53.564;8.112;2023-08-06T14:54:52;4.97;;;2.85;;
30010;SDS011;16851;53.564;8.112;2023-08-06T14:59:58;8.85;;;3.40;;
30010;SDS011;16851;53.564;8.112;2023-08-06T15:05:02;6.43;;;3.10;;
30010;SDS011;16851;53.564;8.112;2023-08-06T15:10:05;8.45;;;3.78;;
30010;SDS011;16851;53.564;8.112;2023-08-06T15:15:27;8.13;;;4.00;;
30010;SDS011;16851;53.564;8.112;2023-08-06T15:20:31;8.50;;;4.47;;
30010;SDS011;16851;53.564;8.112;2023-08-06T15:25:37;7.15;;;3.88;;
30010;SDS011;16851;53.564;8.112;2023-08-06T15:30:45;7.18;;;3.55;;
30010;SDS011;16851;53.564;8.112;2023-08-06T15:35:50;6.82;;;3.58;;
30010;SDS011;16851;53.564;8.112;2023-08-06T15:40:54;8.55;;;3.85;;
30010;SDS011;16851;53.564;8.112;2023-08-06T15:45:56;5.18;;;3.00;;
30010;SDS011;16851;53.564;8.112;2023-08-06T15:50:59;5.05;;;3.03;;
30010;SDS011;16851;53.564;8.112;2023-08-06T15:56:03;9.20;;;2.15;;
30010;SDS011;16851;53.564;8.112;2023-08-06T16:01:08;6.47;;;1.70;;
30010;SDS011;16851;53.564;8.112;2023-08-06T16:06:12;7.03;;;2.15;;
30010;SDS011;16851;53.564;8.112;2023-08-06T16:11:14;5.07;;;1.70;;
30010;SDS011;16851;53.564;8.112;2023-08-06T16:16:16;8.07;;;1.85;;
30010;SDS011;16851;53.564;8.112;2023-08-06T16:21:21;6.75;;;1.90;;
30010;SDS011;16851;53.564;8.112;2023-08-06T16:26:23;4.70;;;1.73;;
30010;SDS011;16851;53.564;8.112;2023-08-06T16:31:25;5.82;;;1.80;;
30010;SDS011;16851;53.564;8.112;2023-08-06T16:36:31;7.30;;;1.90;;
30010;SDS011;16851;53.564;8.112;2023-08-06T16:41:33;4.45;;;1.50;;
30010;SDS011;16851;53.564;8.112;2023-08-06T16:46:37;4.47;;;1.58;;
30010;SDS011;16851;53.564;8.112;2023-08-06T16:51:42;5.60;;;1.55;;
30010;SDS011;16851;53.564;8.112;2023-08-06T16:56:48;3.38;;;1.60;;
30010;SDS011;16851;53.564;8.112;2023-08-06T17:01:50;3.30;;;1.40;;
30010;SDS011;16851;53.564;8.112;2023-08-06T17:06:59;4.32;;;1.42;;
30010;SDS011;16851;53.564;8.112;2023-08-06T17:12:01;3.90;;;1.67;;
30010;SDS011;16851;53.564;8.112;2023-08-06T17:17:09;3.67;;;1.65;;
30010;SDS011;16851;53.564;8.112;2023-08-06T17:22:13;6.13;;;1.60;;
30010;SDS011;16851;53.564;8.112;2023-08-06T17:27:17;5.60;;;1.60;;
30010;SDS011;16851;53.564;8.112;2023-08-06T17:32:19;5.90;;;1.88;;
30010;SDS011;16851;53.564;8.112;2023-08-06T17:37:24;4.68;;;1.58;;
30010;SDS011;16851;53.564;8.112;2023-08-06T17:42:28;3.17;;;1.50;;
30010;SDS011;16851;53.564;8.112;2023-08-06T17:47:32;6.05;;;1.70;;
30010;SDS011;16851;53.564;8.112;2023-08-06T17:52:43;5.43;;;1.73;;
30010;SDS011;16851;53.564;8.112;2023-08-06T17:57:45;5.50;;;1.75;;
30010;SDS011;16851;53.564;8.112;2023-08-06T18:02:47;7.03;;;1.70;;
30010;SDS011;16851;53.564;8.112;2023-08-06T18:07:49;3.78;;;1.50;;
30010;SDS011;16851;53.564;8.112;2023-08-06T18:12:51;7.85;;;2.17;;
30010;SDS011;16851;53.564;8.112;2023-08-06T18:17:53;4.50;;;1.98;;
30010;SDS011;16851;53.564;8.112;2023-08-06T18:22:57;4.05;;;1.88;;
30010;SDS011;16851;53.564;8.112;2023-08-06T18:27:59;5.53;;;2.17;;
30010;SDS011;16851;53.564;8.112;2023-08-06T18:33:01;6.65;;;2.25;;
30010;SDS011;16851;53.564;8.112;2023-08-06T18:38:04;4.53;;;1.83;;
30010;SDS011;16851;53.564;8.112;2023-08-06T18:43:08;4.60;;;2.15;;
30010;SDS011;16851;53.564;8.112;2023-08-06T18:48:10;4.45;;;1.80;;
30010;SDS011;16851;53.564;8.112;2023-08-06T18:53:14;4.65;;;1.90;;
30010;SDS011;16851;53.564;8.112;2023-08-06T18:58:16;5.53;;;2.15;;
30010;SDS011;16851;53.564;8.112;2023-08-06T19:03:23;6.90;;;2.47;;
30010;SDS011;16851;53.564;8.112;2023-08-06T19:08:25;4.88;;;2.58;;
30010;SDS011;16851;53.564;8.112;2023-08-06T19:13:27;7.10;;;2.10;;
30010;SDS011;16851;53.564;8.112;2023-08-06T19:18:29;4.90;;;2.22;;
30010;SDS011;16851;53.564;8.112;2023-08-06T19:23:33;5.22;;;2.33;;
30010;SDS011;16851;53.564;8.112;2023-08-06T19:28:38;5.63;;;2.50;;
30010;SDS011;16851;53.564;8.112;2023-08-06T19:33:40;5.93;;;2.67;;
30010;SDS011;16851;53.564;8.112;2023-08-06T19:38:41;5.57;;;2.40;;
30010;SDS011;16851;53.564;8.112;2023-08-06T19:43:43;8.35;;;2.58;;
30010;SDS011;16851;53.564;8.112;2023-08-06T19:48:45;7.35;;;2.80;;
30010;SDS011;16851;53.564;8.112;2023-08-06T19:53:47;6.53;;;2.67;;
30010;SDS011;16851;53.564;8.112;2023-08-06T19:58:49;7.85;;;3.03;;
30010;SDS011;16851;53.564;8.112;2023-08-06T20:03:54;5.70;;;2.95;;
30010;SDS011;16851;53.564;8.112;2023-08-06T20:09:03;5.05;;;2.25;;
30010;SDS011;16851;53.564;8.112;2023-08-06T20:14:09;5.07;;;2.90;;
30010;SDS011;16851;53.564;8.112;2023-08-06T20:19:16;6.40;;;3.33;;
30010;SDS011;16851;53.564;8.112;2023-08-06T20:24:18;8.02;;;2.95;;
30010;SDS011;16851;53.564;8.112;2023-08-06T20:29:20;6.15;;;2.30;;
30010;SDS011;16851;53.564;8.112;2023-08-06T20:34:21;9.00;;;3.13;;
30010;SDS011;16851;53.564;8.112;2023-08-06T20:39:23;11.20;;;2.67;;
30010;SDS011;16851;53.564;8.112;2023-08-06T20:44:25;14.52;;;3.10;;
30010;SDS011;16851;53.564;8.112;2023-08-06T20:49:33;13.00;;;2.83;;
30010;SDS011;16851;53.564;8.112;2023-08-06T20:54:35;11.85;;;2.65;;
30010;SDS011;16851;53.564;8.112;2023-08-06T20:59:37;6.28;;;2.47;;
30010;SDS011;16851;53.564;8.112;2023-08-06T21:04:44;8.15;;;2.58;;
30010;SDS011;16851;53.564;8.112;2023-08-06T21:09:50;8.02;;;2.22;;
30010;SDS011;16851;53.564;8.112;2023-08-06T21:14:55;6.55;;;2.40;;
30010;SDS011;16851;53.564;8.112;2023-08-06T21:19:57;6.57;;;2.45;;
30010;SDS011;16851;53.564;8.112;2023-08-06T21:25:01;7.88;;;2.50;;
30010;SDS011;16851;53.564;8.112;2023-08-06T21:30:05;5.03;;;2.00;;
30010;SDS011;16851;53.564;8.112;2023-08-06T21:35:14;9.75;;;2.65;;
30010;SDS011;16851;53.564;8.112;2023-08-06T21:40:16;6.80;;;2.20;;
30010;SDS011;16851;53.564;8.112;2023-08-06T21:45:20;6.60;;;2.15;;
30010;SDS011;16851;53.564;8.112;2023-08-06T21:50:25;9.75;;;2.60;;
30010;SDS011;16851;53.564;8.112;2023-08-06T21:55:30;6.32;;;2.45;;
30010;SDS011;16851;53.564;8.112;2023-08-06T22:00:33;6.15;;;2.70;;
30010;SDS011;16851;53.564;8.112;2023-08-06T22:05:38;4.28;;;2.45;;
30010;SDS011;16851;53.564;8.112;2023-08-06T22:10:40;6.60;;;2.17;;
30010;SDS011;16851;53.564;8.112;2023-08-06T22:15:44;5.80;;;3.20;;
30010;SDS011;16851;53.564;8.112;2023-08-06T22:20:50;5.13;;;2.50;;
30010;SDS011;16851;53.564;8.112;2023-08-06T22:25:58;7.00;;;2.28;;
30010;SDS011;16851;53.564;8.112;2023-08-06T22:31:00;5.25;;;3.00;;
30010;SDS011;16851;53.564;8.112;2023-08-06T22:36:04;8.48;;;3.38;;
30010;SDS011;16851;53.564;8.112;2023-08-06T22:41:06;9.18;;;3.42;;
30010;SDS011;16851;53.564;8.112;2023-08-06T22:46:11;7.28;;;3.15;;
30010;SDS011;16851;53.564;8.112;2023-08-06T22:51:13;6.80;;;3.30;;
30010;SDS011;16851;53.564;8.112;2023-08-06T22:56:16;6.18;;;3.45;;
30010;SDS011;16851;53.564;8.112;2023-08-06T23:01:17;8.77;;;4.25;;
30010;SDS011;16851;53.564;8.112;2023-08-06T23:06:22;7.93;;;4.05;;
30010;SDS011;16851;53.564;8.112;2023-08-06T23:11:23;10.55;;;3.88;;
30010;SDS011;16851;53.564;8.112;2023-08-06T23:16:29;8.38;;;3.90;;
30010;SDS011;16851;53.564;8.112;2023-08-06T23:21:33;6.95;;;3.78;;
30010;SDS011;16851;53.564;8.112;2023-08-06T23:26:38;8.00;;;3.80;;
30010;SDS011;16851;53.564;8.112;2023-08-06T23:31:39;5.53;;;3.10;;
30010;SDS011;16851;53.564;8.112;2023-08-06T23:36:41;7.47;;;3.92;;
30010;SDS011;16851;53.564;8.112;2023-08-06T23:41:43;6.88;;;3.80;;
30010;SDS011;16851;53.564;8.112;2023-08-06T23:46:45;8.75;;;3.67;;
30010;SDS011;16851;53.564;8.112;2023-08-06T23:51:51;5.15;;;3.55;;
30010;SDS011;16851;53.564;8.112;2023-08-06T23:56:56;7.70;;;3.53;;
